Time;durP1;ratioP1;P1;durP2;ratioP2;P2;SDS_P1;SDS_P2;PMS_P1;PMS_P2;Temp;Humidity;BMP_temperature;BMP_pressure;BME280_temperature;BME280_humidity;BME280_pressure;Samples;Min_cycle;Max_cycle;Signal;HPM_P1;HPM_P2
2023/06/03 00:01:40;;;;;;;2.78;1.42;;;;;;;;;;5023013;28;20248;-71
2023/06/03 00:04:06;;;;;;;4.15;1.42;;;;;;;;;;5018467;28;20194;-71
2023/06/03 00:06:32;;;;;;;2.67;1.45;;;;;;;;;;5020220;28;20185;-71
2023/06/03 00:08:57;;;;;;;2.05;1.40;;;;;;;;;;5004739;28;20293;-71
2023/06/03 00:11:23;;;;;;;3.88;1.70;;;;;;;;;;5020686;28;20241;-71
2023/06/03 00:13:48;;;;;;;3.58;1.35;;;;;;;;;;5016545;28;20182;-71
2023/06/03 00:16:13;;;;;;;5.05;1.95;;;;;;;;;;5017735;28;20272;-71
2023/06/03 00:18:39;;;;;;;3.38;1.45;;;;;;;;;;5022782;28;20178;-71
2023/06/03 00:21:04;;;;;;;5.28;1.30;;;;;;;;;;5022669;28;20658;-70
2023/06/03 00:23:31;;;;;;;2.10;1.30;;;;;;;;;;5031612;28;20226;-71
2023/06/03 00:25:57;;;;;;;4.40;1.27;;;;;;;;;;5023493;28;20269;-71
2023/06/03 00:28:23;;;;;;;5.03;1.63;;;;;;;;;;5008685;28;20278;-72
2023/06/03 00:30:48;;;;;;;3.47;1.30;;;;;;;;;;5027416;28;20551;-72
2023/06/03 00:33:13;;;;;;;4.63;1.40;;;;;;;;;;5027542;28;20228;-71
2023/06/03 00:35:39;;;;;;;2.55;1.40;;;;;;;;;;5025536;28;20187;-71
2023/06/03 00:38:04;;;;;;;3.33;1.40;;;;;;;;;;5020398;28;20198;-71
2023/06/03 00:40:29;;;;;;;4.40;1.17;;;;;;;;;;5020139;28;20238;-71
2023/06/03 00:42:55;;;;;;;6.93;1.48;;;;;;;;;;5021411;28;20683;-71
2023/06/03 00:45:20;;;;;;;3.58;1.70;;;;;;;;;;5033655;28;20686;-71
2023/06/03 00:47:47;;;;;;;5.43;1.40;;;;;;;;;;5005879;28;20179;-71
2023/06/03 00:50:13;;;;;;;3.65;1.40;;;;;;;;;;5020384;28;20408;-71
2023/06/03 00:52:40;;;;;;;3.58;1.50;;;;;;;;;;5008253;28;20716;-71
2023/06/03 00:55:06;;;;;;;4.10;1.58;;;;;;;;;;5021251;28;20265;-71
2023/06/03 00:57:31;;;;;;;2.65;1.52;;;;;;;;;;5025837;28;20206;-71
2023/06/03 00:59:57;;;;;;;4.28;1.38;;;;;;;;;;5022162;28;20197;-71
2023/06/03 01:02:23;;;;;;;8.85;1.67;;;;;;;;;;5049877;28;20209;-71
2023/06/03 01:04:49;;;;;;;3.15;1.40;;;;;;;;;;5038637;28;20595;-71
2023/06/03 01:07:26;;;;;;;5.15;1.63;;;;;;;;;;5022230;28;20187;-71
2023/06/03 01:10:08;;;;;;;2.80;1.55;;;;;;;;;;5031459;28;20200;-71
2023/06/03 01:12:42;;;;;;;3.25;1.77;;;;;;;;;;5035355;28;20189;-72
2023/06/03 01:15:20;;;;;;;7.35;2.13;;;;;;;;;;5028898;28;20221;-71
2023/06/03 01:17:48;;;;;;;4.03;1.30;;;;;;;;;;5013310;28;20267;-71
2023/06/03 01:20:14;;;;;;;3.22;1.60;;;;;;;;;;5026439;28;20198;-72
2023/06/03 01:22:42;;;;;;;6.22;1.73;;;;;;;;;;5022866;28;20190;-71
2023/06/03 01:25:09;;;;;;;5.65;1.67;;;;;;;;;;5023290;28;20186;-72
2023/06/03 01:27:38;;;;;;;2.60;1.42;;;;;;;;;;5028828;28;20186;-72
2023/06/03 01:30:16;;;;;;;4.70;1.55;;;;;;;;;;5031873;28;20325;-71
2023/06/03 01:32:42;;;;;;;2.60;1.50;;;;;;;;;;5024990;28;20530;-72
2023/06/03 01:35:10;;;;;;;3.38;1.58;;;;;;;;;;5023165;28;20183;-72
2023/06/03 01:37:35;;;;;;;2.67;1.35;;;;;;;;;;5026365;28;20210;-71
2023/06/03 01:40:03;;;;;;;7.72;1.65;;;;;;;;;;5024008;28;20590;-71
2023/06/03 01:42:29;;;;;;;6.35;1.77;;;;;;;;;;5028255;28;20646;-72
2023/06/03 01:44:57;;;;;;;3.90;1.40;;;;;;;;;;5028582;28;20190;-72
2023/06/03 01:47:23;;;;;;;4.28;1.52;;;;;;;;;;5025765;28;20195;-72
2023/06/03 01:49:48;;;;;;;1.92;1.30;;;;;;;;;;5021637;28;20245;-71
2023/06/03 01:52:14;;;;;;;2.78;1.38;;;;;;;;;;5028888;28;20198;-72
2023/06/03 01:54:39;;;;;;;6.93;1.50;;;;;;;;;;5010982;28;20587;-71
2023/06/03 01:57:05;;;;;;;2.83;1.08;;;;;;;;;;5026685;28;20315;-72
2023/06/03 01:59:30;;;;;;;3.33;1.45;;;;;;;;;;5023020;28;20205;-71
2023/06/03 02:01:58;;;;;;;3.28;1.40;;;;;;;;;;5026483;28;20334;-72
2023/06/03 02:04:23;;;;;;;7.20;2.00;;;;;;;;;;5026693;28;20697;-72
2023/06/03 02:06:53;;;;;;;4.70;1.40;;;;;;;;;;5025801;28;20268;-71
2023/06/03 02:09:24;;;;;;;2.28;1.10;;;;;;;;;;5024305;28;20663;-71
2023/06/03 02:11:50;;;;;;;2.35;1.52;;;;;;;;;;5025156;28;20190;-72
2023/06/03 02:14:16;;;;;;;1.88;1.23;;;;;;;;;;5025378;28;20213;-72
2023/06/03 02:16:42;;;;;;;3.22;1.13;;;;;;;;;;5041959;28;20213;-72
2023/06/03 02:19:20;;;;;;;2.10;1.33;;;;;;;;;;5028793;28;20553;-72
2023/06/03 02:21:46;;;;;;;3.92;1.50;;;;;;;;;;5024824;28;20192;-71
2023/06/03 02:24:14;;;;;;;4.32;1.30;;;;;;;;;;5024119;28;20228;-72
2023/06/03 02:26:49;;;;;;;4.18;1.30;;;;;;;;;;5020818;28;20221;-72
2023/06/03 02:29:18;;;;;;;3.88;1.10;;;;;;;;;;5022892;28;20184;-72
2023/06/03 02:31:45;;;;;;;5.05;1.25;;;;;;;;;;5024994;28;20240;-72
2023/06/03 02:34:10;;;;;;;4.05;1.08;;;;;;;;;;5007530;28;20289;-72
2023/06/03 02:36:37;;;;;;;2.15;1.20;;;;;;;;;;5026587;28;20285;-71
2023/06/03 02:39:03;;;;;;;4.55;1.42;;;;;;;;;;5022396;28;20565;-73
2023/06/03 02:41:28;;;;;;;3.53;1.13;;;;;;;;;;5017495;28;20209;-72
2023/06/03 02:43:54;;;;;;;8.23;1.30;;;;;;;;;;5021554;28;20218;-72
2023/06/03 02:46:19;;;;;;;3.95;1.20;;;;;;;;;;5019536;28;20225;-72
2023/06/03 02:48:44;;;;;;;4.13;1.25;;;;;;;;;;5022833;28;20192;-72
2023/06/03 02:51:10;;;;;;;3.47;1.98;;;;;;;;;;5021581;28;20261;-72
2023/06/03 02:53:35;;;;;;;3.70;1.10;;;;;;;;;;5022320;28;20269;-72
2023/06/03 02:56:01;;;;;;;3.25;1.05;;;;;;;;;;5024709;28;20252;-72
2023/06/03 02:58:26;;;;;;;3.47;1.20;;;;;;;;;;5024608;28;20301;-72
2023/06/03 03:00:51;;;;;;;2.95;1.05;;;;;;;;;;5022695;28;20691;-71
2023/06/03 03:03:17;;;;;;;1.63;0.93;;;;;;;;;;5014180;28;20182;-71
2023/06/03 03:05:43;;;;;;;2.92;1.10;;;;;;;;;;5025296;28;20194;-71
2023/06/03 03:08:08;;;;;;;3.72;1.15;;;;;;;;;;5009341;28;20508;-71
2023/06/03 03:10:34;;;;;;;3.53;1.38;;;;;;;;;;5027449;28;20205;-71
2023/06/03 03:12:59;;;;;;;3.08;1.40;;;;;;;;;;5023088;28;20510;-71
2023/06/03 03:15:25;;;;;;;2.45;0.90;;;;;;;;;;5011737;28;20200;-71
2023/06/03 03:17:50;;;;;;;3.30;0.95;;;;;;;;;;5025175;28;20287;-71
2023/06/03 03:20:16;;;;;;;1.55;1.23;;;;;;;;;;5020416;28;20182;-71
2023/06/03 03:22:44;;;;;;;4.30;1.08;;;;;;;;;;5025938;28;20662;-72
2023/06/03 03:25:10;;;;;;;1.85;1.05;;;;;;;;;;5022075;28;20214;-72
2023/06/03 03:27:36;;;;;;;5.03;1.33;;;;;;;;;;5025803;28;20224;-71
2023/06/03 03:30:04;;;;;;;3.10;1.30;;;;;;;;;;5022633;28;20221;-71
2023/06/03 03:32:30;;;;;;;3.47;1.27;;;;;;;;;;5019528;28;20190;-71
2023/06/03 03:35:11;;;;;;;3.88;1.15;;;;;;;;;;5024414;28;20263;-72
2023/06/03 03:37:36;;;;;;;5.35;1.08;;;;;;;;;;5022209;28;20210;-71
2023/06/03 03:40:04;;;;;;;4.13;1.25;;;;;;;;;;5026149;28;20606;-72
2023/06/03 03:42:29;;;;;;;4.88;1.20;;;;;;;;;;5023403;28;20187;-72
2023/06/03 03:45:00;;;;;;;2.47;1.08;;;;;;;;;;5025190;28;20201;-72
2023/06/03 03:47:26;;;;;;;5.70;1.50;;;;;;;;;;5026132;28;20184;-71
2023/06/03 03:49:51;;;;;;;1.45;1.30;;;;;;;;;;5032090;28;20216;-72
2023/06/03 03:52:26;;;;;;;2.25;1.10;;;;;;;;;;5023269;28;20466;-71
2023/06/03 03:54:52;;;;;;;2.03;1.20;;;;;;;;;;5026555;28;20195;-72
2023/06/03 03:57:19;;;;;;;2.88;1.20;;;;;;;;;;5009880;28;20202;-72
2023/06/03 03:59:44;;;;;;;3.45;1.80;;;;;;;;;;5023155;28;20190;-72
2023/06/03 04:02:11;;;;;;;4.10;1.50;;;;;;;;;;5025013;28;20552;-72
2023/06/03 04:04:44;;;;;;;6.10;1.17;;;;;;;;;;5026721;28;20665;-72
2023/06/03 04:07:14;;;;;;;4.22;1.48;;;;;;;;;;5025040;28;20186;-72
2023/06/03 04:09:41;;;;;;;4.25;1.23;;;;;;;;;;5033721;28;20192;-71
2023/06/03 04:12:28;;;;;;;2.25;1.08;;;;;;;;;;5027102;28;20659;-72
2023/06/03 04:14:53;;;;;;;5.22;1.17;;;;;;;;;;5025195;28;20180;-72
2023/06/03 04:17:21;;;;;;;2.22;1.02;;;;;;;;;;5022320;28;20593;-72
2023/06/03 04:19:48;;;;;;;4.65;1.23;;;;;;;;;;5012784;28;20241;-72
2023/06/03 04:22:18;;;;;;;2.58;1.40;;;;;;;;;;5022465;28;20190;-72
2023/06/03 04:24:44;;;;;;;1.92;1.00;;;;;;;;;;5021458;28;20277;-71
2023/06/03 04:27:09;;;;;;;2.85;1.30;;;;;;;;;;5028646;28;20781;-71
2023/06/03 04:29:35;;;;;;;2.22;1.25;;;;;;;;;;5021772;28;20263;-71
2023/06/03 04:32:00;;;;;;;3.75;1.30;;;;;;;;;;5030972;28;20241;-70
2023/06/03 04:34:27;;;;;;;4.38;1.40;;;;;;;;;;5017879;28;20193;-71
2023/06/03 04:36:52;;;;;;;3.00;1.25;;;;;;;;;;5024044;28;20224;-71
2023/06/03 04:39:18;;;;;;;3.03;1.33;;;;;;;;;;5018191;28;20231;-71
2023/06/03 04:41:44;;;;;;;3.33;1.40;;;;;;;;;;5015176;28;20196;-71
2023/06/03 04:44:11;;;;;;;3.08;1.50;;;;;;;;;;5027333;28;20259;-72
2023/06/03 04:46:37;;;;;;;3.17;1.25;;;;;;;;;;5024085;28;20650;-73
2023/06/03 04:49:03;;;;;;;4.90;1.27;;;;;;;;;;5014178;28;20209;-69
2023/06/03 04:51:33;;;;;;;5.40;1.20;;;;;;;;;;5028925;28;20213;-69
2023/06/03 04:53:59;;;;;;;2.78;1.17;;;;;;;;;;5026763;28;20194;-70
2023/06/03 04:56:24;;;;;;;3.17;1.35;;;;;;;;;;4997703;28;20193;-69
2023/06/03 04:58:54;;;;;;;3.00;1.30;;;;;;;;;;5026452;28;20186;-70
2023/06/03 05:01:24;;;;;;;4.65;1.60;;;;;;;;;;5027592;28;20730;-70
2023/06/03 05:03:53;;;;;;;2.40;1.25;;;;;;;;;;5028980;28;20212;-69
2023/06/03 05:06:20;;;;;;;2.60;1.30;;;;;;;;;;5028937;28;20273;-70
2023/06/03 05:08:47;;;;;;;3.22;1.25;;;;;;;;;;5028639;28;20193;-72
2023/06/03 05:11:15;;;;;;;2.58;1.10;;;;;;;;;;5024651;28;20189;-72
2023/06/03 05:13:40;;;;;;;1.40;1.00;;;;;;;;;;5022025;28;21534;-70
2023/06/03 05:16:06;;;;;;;2.50;1.13;;;;;;;;;;5026812;28;20214;-71
2023/06/03 05:18:31;;;;;;;1.50;0.98;;;;;;;;;;5030257;28;20198;-70
2023/06/03 05:20:57;;;;;;;4.50;1.40;;;;;;;;;;5030078;28;20197;-70
2023/06/03 05:23:22;;;;;;;2.53;0.95;;;;;;;;;;5027505;28;20556;-71
2023/06/03 05:25:47;;;;;;;3.92;1.40;;;;;;;;;;5030119;28;20244;-69
2023/06/03 05:28:13;;;;;;;1.80;0.98;;;;;;;;;;5032380;28;20181;-71
2023/06/03 05:30:38;;;;;;;6.43;1.30;;;;;;;;;;5033707;28;20247;-70
2023/06/03 05:33:03;;;;;;;1.85;1.13;;;;;;;;;;5025078;28;20183;-69
2023/06/03 05:35:29;;;;;;;3.53;1.17;;;;;;;;;;5045599;28;20181;-71
2023/06/03 05:37:54;;;;;;;2.45;1.25;;;;;;;;;;5024657;28;20202;-72
2023/06/03 05:40:19;;;;;;;1.42;1.00;;;;;;;;;;5026632;28;20229;-72
2023/06/03 05:42:47;;;;;;;2.58;1.20;;;;;;;;;;5026153;28;20619;-70
2023/06/03 05:45:13;;;;;;;2.15;0.90;;;;;;;;;;5041315;28;20189;-69
2023/06/03 05:47:39;;;;;;;3.25;1.30;;;;;;;;;;5027047;28;20217;-70
2023/06/03 05:50:05;;;;;;;4.32;1.38;;;;;;;;;;5025877;28;20623;-70
2023/06/03 05:52:31;;;;;;;2.88;1.02;;;;;;;;;;5028838;28;20186;-70
2023/06/03 05:54:56;;;;;;;2.75;1.20;;;;;;;;;;5017496;28;20206;-70
2023/06/03 05:57:23;;;;;;;3.47;1.33;;;;;;;;;;5023687;28;20608;-71
2023/06/03 05:59:50;;;;;;;1.88;1.13;;;;;;;;;;5023374;28;20698;-70
2023/06/03 06:02:17;;;;;;;2.45;1.00;;;;;;;;;;5018004;28;20213;-70
2023/06/03 06:04:42;;;;;;;2.97;1.23;;;;;;;;;;5020206;28;20307;-72
2023/06/03 06:07:07;;;;;;;2.30;1.25;;;;;;;;;;5027711;28;20285;-69
2023/06/03 06:09:33;;;;;;;2.75;1.10;;;;;;;;;;5017899;28;20178;-71
2023/06/03 06:11:58;;;;;;;3.63;1.00;;;;;;;;;;5020464;28;20194;-70
2023/06/03 06:14:24;;;;;;;2.88;1.10;;;;;;;;;;5014899;28;20282;-71
2023/06/03 06:16:51;;;;;;;1.67;0.98;;;;;;;;;;5023521;28;20202;-72
2023/06/03 06:19:17;;;;;;;4.03;1.45;;;;;;;;;;5009641;28;20232;-69
2023/06/03 06:21:42;;;;;;;4.00;1.20;;;;;;;;;;5012772;28;20194;-70
2023/06/03 06:24:07;;;;;;;1.52;1.00;;;;;;;;;;5035057;28;20700;-72
2023/06/03 06:26:33;;;;;;;2.40;1.20;;;;;;;;;;5030185;28;20214;-71
2023/06/03 06:29:00;;;;;;;2.00;1.00;;;;;;;;;;5026903;28;20220;-72
2023/06/03 06:31:26;;;;;;;4.18;1.40;;;;;;;;;;5029482;28;20190;-71
2023/06/03 06:33:51;;;;;;;4.47;1.08;;;;;;;;;;5017708;28;20196;-71
2023/06/03 06:36:16;;;;;;;5.53;1.50;;;;;;;;;;5032887;28;20657;-71
2023/06/03 06:38:42;;;;;;;2.45;0.93;;;;;;;;;;5024148;28;20751;-71
2023/06/03 06:41:11;;;;;;;3.08;1.13;;;;;;;;;;5034311;28;20286;-71
2023/06/03 06:43:39;;;;;;;4.55;1.33;;;;;;;;;;5028802;28;20210;-71
2023/06/03 06:46:04;;;;;;;2.58;0.88;;;;;;;;;;5021447;28;20305;-71
2023/06/03 06:48:33;;;;;;;1.23;0.77;;;;;;;;;;5032099;28;20345;-72
2023/06/03 06:51:01;;;;;;;4.60;1.17;;;;;;;;;;5032007;28;20181;-71
2023/06/03 06:53:28;;;;;;;5.00;1.27;;;;;;;;;;5026835;28;20545;-73
2023/06/03 06:55:55;;;;;;;4.75;0.80;;;;;;;;;;4331438;28;9999935;-70
2023/06/03 06:58:24;;;;;;;2.58;1.38;;;;;;;;;;5034945;28;20236;-69
2023/06/03 07:00:50;;;;;;;5.38;0.90;;;;;;;;;;5020842;28;20675;-69
2023/06/03 07:03:17;;;;;;;5.35;0.90;;;;;;;;;;5023811;28;20182;-70
2023/06/03 07:05:43;;;;;;;5.70;1.05;;;;;;;;;;5035288;28;20190;-70
2023/06/03 07:08:12;;;;;;;5.68;1.10;;;;;;;;;;5036032;28;20173;-71
2023/06/03 07:10:38;;;;;;;2.35;1.00;;;;;;;;;;5037756;28;20183;-71
2023/06/03 07:13:06;;;;;;;1.88;0.90;;;;;;;;;;5020701;28;20185;-71
2023/06/03 07:15:32;;;;;;;3.28;1.52;;;;;;;;;;5027842;28;20334;-72
2023/06/03 07:17:58;;;;;;;3.38;1.17;;;;;;;;;;5028767;28;20198;-73
2023/06/03 07:20:31;;;;;;;1.33;0.88;;;;;;;;;;5020919;28;20183;-71
2023/06/03 07:22:56;;;;;;;2.25;0.88;;;;;;;;;;5017085;28;20232;-71
2023/06/03 07:25:49;;;;;;;3.22;0.98;;;;;;;;;;5017991;28;20218;-71
2023/06/03 07:28:14;;;;;;;1.52;0.90;;;;;;;;;;5027659;28;20181;-71
2023/06/03 07:30:41;;;;;;;2.88;1.08;;;;;;;;;;5007036;28;20243;-71
2023/06/03 07:33:10;;;;;;;2.17;1.08;;;;;;;;;;5018188;28;20182;-71
2023/06/03 07:35:35;;;;;;;4.82;1.15;;;;;;;;;;5039150;28;20288;-71
2023/06/03 07:38:05;;;;;;;1.75;0.90;;;;;;;;;;5025002;28;20214;-73
2023/06/03 07:40:39;;;;;;;3.47;0.75;;;;;;;;;;5013900;28;20225;-71
2023/06/03 07:43:04;;;;;;;3.28;0.93;;;;;;;;;;5026932;28;20192;-71
2023/06/03 07:45:30;;;;;;;3.28;1.10;;;;;;;;;;5014946;28;20182;-70
2023/06/03 07:47:56;;;;;;;1.67;0.90;;;;;;;;;;5025038;28;20248;-73
2023/06/03 07:50:26;;;;;;;1.80;0.80;;;;;;;;;;5022208;28;20228;-71
2023/06/03 07:53:04;;;;;;;1.35;0.60;;;;;;;;;;5015518;28;20248;-71
2023/06/03 07:55:38;;;;;;;3.55;0.80;;;;;;;;;;5020709;28;21399;-71
2023/06/03 07:58:03;;;;;;;1.92;0.80;;;;;;;;;;5022626;28;20599;-72
2023/06/03 08:00:29;;;;;;;3.20;0.60;;;;;;;;;;5022799;28;20271;-72
2023/06/03 08:02:54;;;;;;;2.28;0.47;;;;;;;;;;5021631;28;20274;-70
2023/06/03 08:05:31;;;;;;;1.83;0.60;;;;;;;;;;5018251;28;20214;-71
2023/06/03 08:07:56;;;;;;;2.50;0.80;;;;;;;;;;5026924;28;20190;-72
2023/06/03 08:10:24;;;;;;;0.73;0.50;;;;;;;;;;5027602;28;20197;-71
2023/06/03 08:12:50;;;;;;;1.58;0.70;;;;;;;;;;5014784;28;20258;-71
2023/06/03 08:15:40;;;;;;;1.40;0.50;;;;;;;;;;5017983;28;20186;-69
2023/06/03 08:18:06;;;;;;;1.25;0.35;;;;;;;;;;5002988;28;20225;-71
2023/06/03 08:20:33;;;;;;;2.40;0.45;;;;;;;;;;5020434;28;20201;-69
2023/06/03 08:22:59;;;;;;;2.08;0.40;;;;;;;;;;5027929;28;20645;-69
2023/06/03 08:25:26;;;;;;;0.80;0.50;;;;;;;;;;5026985;28;20194;-68
2023/06/03 08:27:52;;;;;;;1.58;0.50;;;;;;;;;;5027795;28;20304;-67
2023/06/03 08:30:20;;;;;;;1.52;0.50;;;;;;;;;;5029270;28;20260;-69
2023/06/03 08:32:46;;;;;;;1.65;0.65;;;;;;;;;;5026916;28;20189;-70
2023/06/03 08:35:12;;;;;;;2.63;0.50;;;;;;;;;;5026106;28;20189;-72
2023/06/03 08:37:38;;;;;;;0.75;0.60;;;;;;;;;;5025076;28;20540;-71
2023/06/03 08:40:09;;;;;;;1.10;0.55;;;;;;;;;;5026196;28;20237;-72
2023/06/03 08:42:42;;;;;;;1.70;0.50;;;;;;;;;;5027391;28;20263;-70
2023/06/03 08:45:12;;;;;;;0.43;0.40;;;;;;;;;;5029414;28;20190;-70
2023/06/03 08:48:05;;;;;;;2.63;0.57;;;;;;;;;;5027692;28;20205;-72
2023/06/03 08:50:32;;;;;;;1.73;0.60;;;;;;;;;;5026832;28;20190;-71
2023/06/03 08:53:00;;;;;;;2.58;0.70;;;;;;;;;;5026758;28;20190;-71
2023/06/03 08:55:26;;;;;;;1.27;0.60;;;;;;;;;;5027281;28;20182;-70
2023/06/03 08:58:12;;;;;;;2.33;0.63;;;;;;;;;;5023654;28;20271;-72
2023/06/03 09:00:38;;;;;;;2.03;0.50;;;;;;;;;;5023509;28;20206;-70
2023/06/03 09:03:05;;;;;;;1.27;0.60;;;;;;;;;;5028185;28;20205;-70
2023/06/03 09:05:32;;;;;;;1.08;0.40;;;;;;;;;;5029335;28;20257;-72
2023/06/03 09:07:58;;;;;;;2.47;0.55;;;;;;;;;;5027009;28;20186;-69
2023/06/03 09:10:26;;;;;;;1.58;0.63;;;;;;;;;;5026425;28;20252;-73
2023/06/03 09:12:55;;;;;;;2.25;0.57;;;;;;;;;;5021134;28;20193;-71
2023/06/03 09:15:21;;;;;;;1.17;0.60;;;;;;;;;;5009944;28;20186;-71
2023/06/03 09:17:47;;;;;;;0.40;0.40;;;;;;;;;;5028393;28;20272;-71
2023/06/03 09:20:13;;;;;;;1.23;0.50;;;;;;;;;;5012298;28;20187;-71
2023/06/03 09:22:40;;;;;;;4.03;0.50;;;;;;;;;;5021241;28;20195;-69
2023/06/03 09:25:06;;;;;;;3.38;0.40;;;;;;;;;;5026825;28;20580;-70
2023/06/03 09:27:32;;;;;;;1.13;0.60;;;;;;;;;;5027376;28;20195;-69
2023/06/03 09:29:59;;;;;;;1.65;0.68;;;;;;;;;;5021357;28;20224;-72
2023/06/03 09:32:25;;;;;;;2.50;0.60;;;;;;;;;;5012012;28;20199;-71
2023/06/03 09:34:53;;;;;;;2.25;0.50;;;;;;;;;;5024532;28;20189;-74
2023/06/03 09:37:19;;;;;;;2.45;0.40;;;;;;;;;;5009370;28;20202;-71
2023/06/03 09:39:44;;;;;;;2.42;0.45;;;;;;;;;;5027139;28;20255;-71
2023/06/03 09:42:11;;;;;;;3.80;0.50;;;;;;;;;;5043414;28;20174;-72
2023/06/03 09:44:41;;;;;;;1.15;0.40;;;;;;;;;;5033047;28;20360;-71
2023/06/03 09:47:07;;;;;;;2.28;0.50;;;;;;;;;;5023680;28;20202;-73
2023/06/03 09:49:32;;;;;;;1.30;0.55;;;;;;;;;;5029316;28;20189;-73
2023/06/03 09:51:58;;;;;;;0.73;0.40;;;;;;;;;;5028470;28;20193;-73
2023/06/03 09:54:24;;;;;;;2.13;0.45;;;;;;;;;;5028463;28;20217;-70
2023/06/03 09:56:51;;;;;;;0.95;0.40;;;;;;;;;;5034718;28;20202;-73
2023/06/03 09:59:25;;;;;;;1.92;0.60;;;;;;;;;;5028885;28;20178;-72
2023/06/03 10:01:52;;;;;;;1.70;0.50;;;;;;;;;;5025504;28;20270;-72
2023/06/03 10:04:22;;;;;;;1.20;0.50;;;;;;;;;;5028333;28;20190;-70
2023/06/03 10:07:17;;;;;;;1.20;0.60;;;;;;;;;;5027275;28;20269;-73
2023/06/03 10:09:47;;;;;;;1.05;0.50;;;;;;;;;;5023046;28;20240;-74
2023/06/03 10:12:27;;;;;;;5.18;0.60;;;;;;;;;;5024510;28;20210;-73
2023/06/03 10:14:56;;;;;;;1.60;0.40;;;;;;;;;;5024967;28;20193;-73
2023/06/03 10:17:21;;;;;;;0.90;0.60;;;;;;;;;;5027170;28;20285;-74
2023/06/03 10:19:47;;;;;;;2.38;0.60;;;;;;;;;;5030159;28;20660;-74
2023/06/03 10:22:16;;;;;;;1.17;0.63;;;;;;;;;;5024759;28;20190;-74
2023/06/03 10:24:43;;;;;;;1.25;0.50;;;;;;;;;;5028856;28;20652;-74
2023/06/03 10:27:10;;;;;;;4.15;0.68;;;;;;;;;;5023187;28;20173;-74
2023/06/03 10:29:36;;;;;;;0.95;0.77;;;;;;;;;;5033966;28;20217;-73
2023/06/03 10:32:03;;;;;;;0.85;0.60;;;;;;;;;;5031972;28;20874;-74
2023/06/03 10:34:30;;;;;;;0.57;0.40;;;;;;;;;;5020975;28;20739;-73
2023/06/03 10:36:57;;;;;;;0.80;0.50;;;;;;;;;;5025518;28;20562;-71
2023/06/03 10:39:24;;;;;;;2.40;0.57;;;;;;;;;;5018876;28;20225;-73
2023/06/03 10:41:51;;;;;;;2.40;0.70;;;;;;;;;;5028317;28;20217;-72
2023/06/03 10:44:19;;;;;;;1.95;0.55;;;;;;;;;;5021661;28;20183;-72
2023/06/03 10:47:21;;;;;;;0.80;0.50;;;;;;;;;;5009195;28;20483;-72
2023/06/03 10:49:50;;;;;;;0.50;0.40;;;;;;;;;;5018145;28;20181;-71
2023/06/03 10:52:25;;;;;;;0.70;0.30;;;;;;;;;;5026360;28;20182;-74
2023/06/03 10:55:16;;;;;;;2.80;0.70;;;;;;;;;;5017249;28;20193;-70
2023/06/03 10:57:56;;;;;;;1.00;0.57;;;;;;;;;;5028102;28;20648;-71
2023/06/03 11:01:00;;;;;;;0.65;0.50;;;;;;;;;;5021593;28;20216;-72
2023/06/03 11:03:34;;;;;;;1.40;0.40;;;;;;;;;;5014995;28;20185;-73
2023/06/03 11:06:32;;;;;;;1.05;0.50;;;;;;;;;;5017850;28;20209;-72
2023/06/03 11:08:59;;;;;;;3.13;0.57;;;;;;;;;;5033748;28;20680;-72
2023/06/03 11:11:44;;;;;;;4.35;0.40;;;;;;;;;;5029152;28;20182;-72
2023/06/03 11:14:29;;;;;;;1.38;0.40;;;;;;;;;;5028764;28;20548;-72
2023/06/03 11:16:57;;;;;;;1.17;0.38;;;;;;;;;;5049132;28;20263;-71
2023/06/03 11:19:33;;;;;;;4.53;0.70;;;;;;;;;;5033611;28;20201;-72
2023/06/03 11:22:04;;;;;;;1.58;0.65;;;;;;;;;;5037212;28;20177;-71
2023/06/03 11:24:39;;;;;;;0.85;0.57;;;;;;;;;;5031215;28;20235;-71
2023/06/03 11:27:10;;;;;;;1.70;0.50;;;;;;;;;;5018162;28;20185;-72
2023/06/03 11:29:48;;;;;;;6.63;0.60;;;;;;;;;;5027907;28;20668;-71
2023/06/03 11:32:35;;;;;;;2.75;1.05;;;;;;;;;;5025854;28;20200;-72
2023/06/03 11:35:03;;;;;;;2.88;0.60;;;;;;;;;;5028004;28;20283;-73
2023/06/03 11:37:41;;;;;;;1.10;0.60;;;;;;;;;;5027933;28;20544;-72
2023/06/03 11:40:17;;;;;;;0.65;0.40;;;;;;;;;;5026772;28;20598;-71
2023/06/03 11:42:49;;;;;;;6.38;0.68;;;;;;;;;;5040643;28;20260;-72
2023/06/03 11:45:21;;;;;;;1.90;0.57;;;;;;;;;;5027968;28;20555;-73
2023/06/03 11:47:49;;;;;;;1.08;0.60;;;;;;;;;;5032091;28;20581;-72
2023/06/03 11:50:15;;;;;;;2.13;0.70;;;;;;;;;;5028048;28;20194;-71
2023/06/03 11:52:40;;;;;;;2.42;0.40;;;;;;;;;;5014825;28;20182;-71
2023/06/03 11:55:06;;;;;;;0.60;0.50;;;;;;;;;;5022066;28;20558;-72
2023/06/03 11:57:33;;;;;;;0.82;0.50;;;;;;;;;;5035604;28;20205;-73
2023/06/03 12:00:06;;;;;;;3.78;0.60;;;;;;;;;;5045160;28;20185;-73
2023/06/03 12:02:38;;;;;;;0.30;0.30;;;;;;;;;;5028194;28;20268;-72
2023/06/03 12:05:05;;;;;;;0.73;0.50;;;;;;;;;;5031092;28;20629;-74
2023/06/03 12:07:30;;;;;;;3.30;0.50;;;;;;;;;;5030530;28;20188;-74
2023/06/03 12:09:58;;;;;;;1.65;0.65;;;;;;;;;;5035869;28;20284;-71
2023/06/03 12:12:24;;;;;;;2.53;0.60;;;;;;;;;;5036735;28;20673;-71
2023/06/03 12:14:50;;;;;;;4.20;0.50;;;;;;;;;;5027212;28;20190;-72
2023/06/03 12:17:18;;;;;;;2.08;0.55;;;;;;;;;;5018587;28;20220;-70
2023/06/03 12:19:45;;;;;;;0.98;0.40;;;;;;;;;;5019591;28;20187;-70
2023/06/03 12:22:12;;;;;;;1.23;0.43;;;;;;;;;;5017827;28;20195;-70
2023/06/03 12:24:41;;;;;;;0.45;0.43;;;;;;;;;;5013877;28;20182;-71
2023/06/03 12:27:15;;;;;;;0.90;0.60;;;;;;;;;;5011878;28;20615;-74
2023/06/03 12:29:47;;;;;;;2.08;0.32;;;;;;;;;;5021074;28;20259;-70
2023/06/03 12:32:13;;;;;;;1.60;0.40;;;;;;;;;;5013504;28;20278;-72
2023/06/03 12:34:38;;;;;;;2.20;0.55;;;;;;;;;;5025256;28;20261;-70
2023/06/03 12:37:05;;;;;;;2.28;0.57;;;;;;;;;;5021015;28;20755;-71
2023/06/03 12:39:49;;;;;;;0.60;0.50;;;;;;;;;;5026072;28;20259;-72
2023/06/03 12:42:20;;;;;;;1.05;0.60;;;;;;;;;;5034850;28;20189;-72
2023/06/03 12:44:48;;;;;;;2.90;0.60;;;;;;;;;;5024905;28;20190;-72
2023/06/03 12:47:15;;;;;;;1.85;0.60;;;;;;;;;;5021850;28;20662;-70
2023/06/03 12:49:42;;;;;;;2.15;0.60;;;;;;;;;;5019447;28;20190;-70
2023/06/03 12:52:19;;;;;;;2.00;0.40;;;;;;;;;;5024280;28;20209;-72
2023/06/03 12:54:52;;;;;;;4.30;1.67;;;;;;;;;;5019758;28;20269;-73
2023/06/03 12:57:18;;;;;;;2.55;0.60;;;;;;;;;;5010965;28;20705;-74
2023/06/03 13:00:19;;;;;;;2.83;0.80;;;;;;;;;;5023074;28;20193;-72
2023/06/03 13:02:47;;;;;;;3.75;0.75;;;;;;;;;;4989830;28;20795;-70
2023/06/03 13:05:13;;;;;;;1.40;0.60;;;;;;;;;;5033254;28;20283;-73
2023/06/03 13:07:41;;;;;;;2.05;0.70;;;;;;;;;;5034786;28;20186;-73
2023/06/03 13:10:09;;;;;;;2.53;0.75;;;;;;;;;;5013454;28;20549;-71
2023/06/03 13:12:35;;;;;;;3.03;0.82;;;;;;;;;;5017824;28;20228;-70
2023/06/03 13:15:02;;;;;;;3.65;0.75;;;;;;;;;;5021505;28;20201;-71
2023/06/03 13:17:28;;;;;;;2.53;0.57;;;;;;;;;;5020346;28;20256;-72
2023/06/03 13:19:54;;;;;;;1.50;0.75;;;;;;;;;;5018046;28;20198;-71
2023/06/03 13:22:29;;;;;;;1.81;0.80;;;;;;;;;;4666926;28;10002864;-72
2023/06/03 13:24:55;;;;;;;4.13;0.60;;;;;;;;;;5038044;28;20194;-73
2023/06/03 13:27:21;;;;;;;1.70;0.57;;;;;;;;;;5026079;28;20228;-71
2023/06/03 13:29:46;;;;;;;3.33;0.70;;;;;;;;;;5026812;28;20513;-72
2023/06/03 13:32:12;;;;;;;2.80;0.70;;;;;;;;;;5013059;28;20252;-70
2023/06/03 13:34:39;;;;;;;1.77;0.73;;;;;;;;;;5026000;28;20714;-71
2023/06/03 13:37:05;;;;;;;1.20;0.80;;;;;;;;;;5019931;28;20224;-71
2023/06/03 13:39:33;;;;;;;1.95;0.50;;;;;;;;;;5023673;28;20261;-70
2023/06/03 13:42:01;;;;;;;1.13;0.75;;;;;;;;;;5027961;28;20443;-71
2023/06/03 13:44:29;;;;;;;1.00;0.68;;;;;;;;;;5030143;28;20729;-69
2023/06/03 13:46:55;;;;;;;6.05;0.90;;;;;;;;;;5029925;28;20193;-72
2023/06/03 13:49:20;;;;;;;1.13;0.68;;;;;;;;;;5024515;28;20186;-70
2023/06/03 13:51:46;;;;;;;2.30;0.70;;;;;;;;;;5021992;28;20194;-71
2023/06/03 13:54:12;;;;;;;2.15;0.60;;;;;;;;;;5023835;28;20553;-71
2023/06/03 13:56:38;;;;;;;2.47;0.60;;;;;;;;;;5026084;28;20282;-72
2023/06/03 13:59:04;;;;;;;3.05;0.60;;;;;;;;;;5031752;28;20208;-71
2023/06/03 14:01:30;;;;;;;2.25;0.70;;;;;;;;;;5024400;28;20209;-68
2023/06/03 14:03:55;;;;;;;3.97;0.70;;;;;;;;;;5023923;28;20190;-72
2023/06/03 14:06:21;;;;;;;0.90;0.70;;;;;;;;;;5006035;28;20251;-72
2023/06/03 14:08:47;;;;;;;3.63;0.90;;;;;;;;;;5020973;28;20273;-73
2023/06/03 14:11:13;;;;;;;2.20;0.70;;;;;;;;;;5028614;28;20542;-72
2023/06/03 14:13:39;;;;;;;3.00;0.70;;;;;;;;;;5038159;28;20190;-72
2023/06/03 14:16:05;;;;;;;3.28;0.65;;;;;;;;;;5025825;28;20248;-72
2023/06/03 14:18:30;;;;;;;2.28;0.80;;;;;;;;;;5024446;28;20632;-71
2023/06/03 14:20:56;;;;;;;3.35;0.73;;;;;;;;;;5027830;28;20240;-70
2023/06/03 14:23:21;;;;;;;2.47;0.70;;;;;;;;;;5021471;28;20232;-72
2023/06/03 14:25:46;;;;;;;3.70;0.50;;;;;;;;;;5026938;28;20201;-71
2023/06/03 14:28:12;;;;;;;10.43;1.13;;;;;;;;;;5031092;28;20197;-71
2023/06/03 14:30:37;;;;;;;1.88;0.60;;;;;;;;;;5013584;28;20187;-70
2023/06/03 14:33:03;;;;;;;6.68;1.17;;;;;;;;;;5014083;28;20194;-71
2023/06/03 14:35:28;;;;;;;1.00;0.60;;;;;;;;;;5024038;28;20287;-71
2023/06/03 14:37:54;;;;;;;1.95;0.68;;;;;;;;;;5023800;28;20206;-72
2023/06/03 14:40:19;;;;;;;3.92;0.70;;;;;;;;;;5020959;28;20230;-71
2023/06/03 14:42:45;;;;;;;1.10;0.60;;;;;;;;;;5019895;28;20202;-72
2023/06/03 14:45:10;;;;;;;2.30;0.80;;;;;;;;;;5029361;28;20575;-71
2023/06/03 14:47:36;;;;;;;1.88;0.70;;;;;;;;;;5031917;28;20216;-70
2023/06/03 14:50:02;;;;;;;1.23;0.60;;;;;;;;;;5021566;28;20689;-71